Detalii statie PETRESTI PETRESTI [0000197D]

Toti senzorii

Date Temperatura solului [C]Precipitatii [mm]Voltaj baterie [mV]Leaf Wetness [Min]HC Air temperature [C]HC Relative humidity [%]Punctul de roua [C]
medieminmaxsumaultimatimpmedieminmaxmediemediemin
2018-12-09 15:00:00 0 7030 7.53 7.03 8.16 80.72 4.3 3.7
2018-12-09 16:00:00 0 6942 7 6.59 7.32 79.4 3.5 3.2
2018-12-09 17:00:00 0 6884 6.01 5.74 6.43 84.62 3.5 3.3
2018-12-09 18:00:00 0.2 6826 5.35 5.12 5.7 94.72 4.4 3.6
2018-12-09 19:00:00 0.2 6796 4.91 4.69 5.12 100 4.8 4.6
2018-12-09 20:00:00 0.2 6776 4.69 4.57 4.87 100 4.6 4.5
2018-12-09 21:00:00 0 6766 4.55 4.44 4.63 100 4.5 4.4
2018-12-09 22:00:00 0 6766 4.58 4.5 4.7 100 4.5 4.5
2018-12-09 23:00:00 0 6748 4.81 4.63 4.98 100 4.7 4.6
2018-12-10 00:00:00 0 6748 4.7 4.56 4.84 100 4.6 4.5
2018-12-10 01:00:00 0 6738 4.71 4.46 4.89 100 4.6 4.4
2018-12-10 02:00:00 0 6756 4.51 4.41 4.65 100 4.4 4.4
2018-12-10 03:00:00 0 6738 4.3 4.22 4.44 100 4.2 4.2
2018-12-10 04:00:00 0 6748 3.96 3.78 4.16 100 3.9 3.7
2018-12-10 05:00:00 0 6738 4.05 3.82 4.15 100 4 3.8
2018-12-10 06:00:00 0 6748 4.1 3.79 4.23 100 4 3.7
2018-12-10 07:00:00 0 6748 3.13 2.9 3.53 100 3 2.9
2018-12-10 08:00:00 0 6728 2.74 2.41 3 100 2.6 2.4
2018-12-10 09:00:00 0 6756 2.68 2.11 3.43 100 2.6 2.1
2018-12-10 10:00:00 0 6748 3.48 3.36 3.61 100 3.4 3.3
2018-12-10 11:00:00 0 6796 3.65 3.52 3.89 100 3.6 3.5
2018-12-10 12:00:00 0.2 6796 4.11 3.87 4.22 100 4 3.8
2018-12-10 13:00:00 0.8 6816 4.17 4.06 4.35 100 4.1 4
2018-12-10 14:00:00 0.2 6894 4.67 4.39 5.06 100 4.6 4.3
2018-12-10 15:00:00 0 6962 5.39 5.11 5.58 100 5.3 5.1
2018-12-10 16:00:00 0 6894 5.4 5.23 5.65 100 5.3 5.2
2018-12-10 17:00:00 0 6796 4.7 4.29 5.22 100 4.6 4.2
2018-12-10 18:00:00 0 6748 4.15 3.82 4.46 100 4.1 3.8
2018-12-10 19:00:00 0 6728 3.49 3.29 3.78 100 3.4 3.2
2018-12-10 20:00:00 0 6738 3.32 3.27 3.41 100 3.2 3.2
2018-12-10 21:00:00 0 6738 3.46 3.31 3.54 99.97 3.4 3.3
2018-12-10 22:00:00 0 6718 3.3 3 3.55 99.32 3.1 3
2018-12-10 23:00:00 0 6718 2.55 1.99 3.01 100 2.5 1.9
2018-12-11 00:00:00 0 6738 1.53 1.14 2.37 100 1.4 1.1
2018-12-11 01:00:00 0 6728 1.28 0.95 1.49 100 1.2 0.9
2018-12-11 02:00:00 0 6718 1.13 0.87 1.42 100 1 0.8
2018-12-11 03:00:00 0 6718 0.77 0.44 1.05 100 0.7 0.4
2018-12-11 04:00:00 0 6728 0.74 0.41 0.96 100 0.7 0.4
2018-12-11 05:00:00 0 6728 0.92 0.7 1.21 100 0.8 0.7
2018-12-11 06:00:00 0 6708 0.97 0.81 1.07 100 0.9 0.8
2018-12-11 07:00:00 0 6718 1.01 0.76 1.2 100 0.9 0.7
2018-12-11 08:00:00 0.4 6698 0.8 0.78 0.86 100 0.7 0.7
2018-12-11 09:00:00 0 6708 0.45 0.26 0.66 100 0.4 0.2
2018-12-11 10:00:00 0 6756 0.46 0.2 1.14 100 0.4 0.2
2018-12-11 11:00:00 0.2 6796 1.06 0.86 1.21 100 1 0.8